sensor_id;sensor_type;location;lat;lon;timestamp;P1;durP1;ratioP1;P2;durP2;ratioP2
35245;SDS011;21379;50.962;6.960;2023-04-24T00:02:06;1.25;;;0.60;;
35245;SDS011;21379;50.962;6.960;2023-04-24T00:04:35;0.70;;;0.38;;
35245;SDS011;21379;50.962;6.960;2023-04-24T00:07:05;1.25;;;0.40;;
35245;SDS011;21379;50.962;6.960;2023-04-24T00:09:32;0.35;;;0.20;;
35245;SDS011;21379;50.962;6.960;2023-04-24T00:11:59;2.58;;;0.70;;
35245;SDS011;21379;50.962;6.960;2023-04-24T00:14:27;0.40;;;0.40;;
35245;SDS011;21379;50.962;6.960;2023-04-24T00:16:54;0.60;;;0.40;;
35245;SDS011;21379;50.962;6.960;2023-04-24T00:19:21;0.40;;;0.40;;
35245;SDS011;21379;50.962;6.960;2023-04-24T00:21:49;1.10;;;0.50;;
35245;SDS011;21379;50.962;6.960;2023-04-24T00:24:17;1.23;;;0.40;;
35245;SDS011;21379;50.962;6.960;2023-04-24T00:26:44;3.05;;;0.30;;
35245;SDS011;21379;50.962;6.960;2023-04-24T00:29:11;4.35;;;0.68;;
35245;SDS011;21379;50.962;6.960;2023-04-24T00:31:38;0.43;;;0.43;;
35245;SDS011;21379;50.962;6.960;2023-04-24T00:34:05;1.15;;;0.52;;
35245;SDS011;21379;50.962;6.960;2023-04-24T00:36:32;0.70;;;0.50;;
35245;SDS011;21379;50.962;6.960;2023-04-24T00:39:01;0.60;;;0.50;;
35245;SDS011;21379;50.962;6.960;2023-04-24T00:41:28;1.00;;;0.60;;
35245;SDS011;21379;50.962;6.960;2023-04-24T00:43:56;0.88;;;0.70;;
35245;SDS011;21379;50.962;6.960;2023-04-24T00:46:23;0.85;;;0.40;;
35245;SDS011;21379;50.962;6.960;2023-04-24T00:48:50;0.57;;;0.22;;
35245;SDS011;21379;50.962;6.960;2023-04-24T00:51:17;1.67;;;0.52;;
35245;SDS011;21379;50.962;6.960;2023-04-24T00:53:46;0.60;;;0.60;;
35245;SDS011;21379;50.962;6.960;2023-04-24T00:56:14;0.85;;;0.60;;
35245;SDS011;21379;50.962;6.960;2023-04-24T00:58:41;0.30;;;0.28;;
35245;SDS011;21379;50.962;6.960;2023-04-24T01:01:08;2.70;;;0.35;;
35245;SDS011;21379;50.962;6.960;2023-04-24T01:03:36;2.90;;;0.57;;
35245;SDS011;21379;50.962;6.960;2023-04-24T01:06:04;0.85;;;0.57;;
35245;SDS011;21379;50.962;6.960;2023-04-24T01:08:31;0.70;;;0.50;;
35245;SDS011;21379;50.962;6.960;2023-04-24T01:11:03;1.90;;;0.50;;
35245;SDS011;21379;50.962;6.960;2023-04-24T01:13:32;1.95;;;0.85;;
35245;SDS011;21379;50.962;6.960;2023-04-24T01:16:00;0.60;;;0.60;;
35245;SDS011;21379;50.962;6.960;2023-04-24T01:18:27;0.52;;;0.52;;
35245;SDS011;21379;50.962;6.960;2023-04-24T01:20:56;0.57;;;0.50;;
35245;SDS011;21379;50.962;6.960;2023-04-24T01:23:26;1.38;;;0.55;;
35245;SDS011;21379;50.962;6.960;2023-04-24T01:25:53;0.50;;;0.50;;
35245;SDS011;21379;50.962;6.960;2023-04-24T01:28:20;1.80;;;0.55;;
35245;SDS011;21379;50.962;6.960;2023-04-24T01:30:47;0.80;;;0.40;;
35245;SDS011;21379;50.962;6.960;2023-04-24T01:33:14;0.75;;;0.57;;
35245;SDS011;21379;50.962;6.960;2023-04-24T01:35:42;1.77;;;0.80;;
35245;SDS011;21379;50.962;6.960;2023-04-24T01:38:09;2.28;;;1.02;;
35245;SDS011;21379;50.962;6.960;2023-04-24T01:40:37;1.02;;;0.93;;
35245;SDS011;21379;50.962;6.960;2023-04-24T01:43:04;3.15;;;1.45;;
35245;SDS011;21379;50.962;6.960;2023-04-24T01:45:31;4.65;;;1.60;;
35245;SDS011;21379;50.962;6.960;2023-04-24T01:47:58;1.65;;;1.02;;
35245;SDS011;21379;50.962;6.960;2023-04-24T01:50:27;0.98;;;0.88;;
35245;SDS011;21379;50.962;6.960;2023-04-24T01:52:54;1.95;;;1.30;;
35245;SDS011;21379;50.962;6.960;2023-04-24T01:55:21;4.22;;;1.30;;
35245;SDS011;21379;50.962;6.960;2023-04-24T01:57:49;2.28;;;1.13;;
35245;SDS011;21379;50.962;6.960;2023-04-24T02:00:18;3.13;;;1.67;;
35245;SDS011;21379;50.962;6.960;2023-04-24T02:02:45;3.85;;;1.63;;
35245;SDS011;21379;50.962;6.960;2023-04-24T02:05:12;1.70;;;1.17;;
35245;SDS011;21379;50.962;6.960;2023-04-24T02:07:39;3.55;;;1.77;;
35245;SDS011;21379;50.962;6.960;2023-04-24T02:10:07;5.60;;;1.88;;
35245;SDS011;21379;50.962;6.960;2023-04-24T02:12:35;2.92;;;1.42;;
35245;SDS011;21379;50.962;6.960;2023-04-24T02:15:04;5.40;;;2.05;;
35245;SDS011;21379;50.962;6.960;2023-04-24T02:17:32;2.38;;;1.55;;
35245;SDS011;21379;50.962;6.960;2023-04-24T02:19:58;2.25;;;1.55;;
35245;SDS011;21379;50.962;6.960;2023-04-24T02:22:25;3.13;;;1.80;;
35245;SDS011;21379;50.962;6.960;2023-04-24T02:24:52;5.65;;;1.52;;
35245;SDS011;21379;50.962;6.960;2023-04-24T02:27:19;3.35;;;1.90;;
35245;SDS011;21379;50.962;6.960;2023-04-24T02:29:46;5.25;;;1.67;;
35245;SDS011;21379;50.962;6.960;2023-04-24T02:32:14;6.55;;;2.35;;
35245;SDS011;21379;50.962;6.960;2023-04-24T02:34:42;3.33;;;2.38;;
35245;SDS011;21379;50.962;6.960;2023-04-24T02:37:09;6.93;;;2.00;;
35245;SDS011;21379;50.962;6.960;2023-04-24T02:39:36;2.70;;;1.83;;
35245;SDS011;21379;50.962;6.960;2023-04-24T02:42:03;3.10;;;1.95;;
35245;SDS011;21379;50.962;6.960;2023-04-24T02:44:30;3.55;;;2.42;;
35245;SDS011;21379;50.962;6.960;2023-04-24T02:46:57;2.55;;;1.70;;
35245;SDS011;21379;50.962;6.960;2023-04-24T02:49:25;4.18;;;1.98;;
35245;SDS011;21379;50.962;6.960;2023-04-24T02:51:53;4.03;;;2.10;;
35245;SDS011;21379;50.962;6.960;2023-04-24T02:54:20;2.35;;;1.65;;
35245;SDS011;21379;50.962;6.960;2023-04-24T02:56:47;4.57;;;1.63;;
35245;SDS011;21379;50.962;6.960;2023-04-24T02:59:14;3.50;;;1.80;;
35245;SDS011;21379;50.962;6.960;2023-04-24T03:01:40;3.88;;;2.45;;
35245;SDS011;21379;50.962;6.960;2023-04-24T03:04:07;5.45;;;2.10;;
35245;SDS011;21379;50.962;6.960;2023-04-24T03:06:36;5.05;;;2.50;;
35245;SDS011;21379;50.962;6.960;2023-04-24T03:09:03;4.20;;;2.58;;
35245;SDS011;21379;50.962;6.960;2023-04-24T03:11:30;3.55;;;2.38;;
35245;SDS011;21379;50.962;6.960;2023-04-24T03:13:57;5.05;;;2.47;;
35245;SDS011;21379;50.962;6.960;2023-04-24T03:16:24;4.72;;;2.15;;
35245;SDS011;21379;50.962;6.960;2023-04-24T03:18:54;3.42;;;2.45;;
35245;SDS011;21379;50.962;6.960;2023-04-24T03:21:23;7.80;;;3.15;;
35245;SDS011;21379;50.962;6.960;2023-04-24T03:23:53;5.60;;;2.70;;
35245;SDS011;21379;50.962;6.960;2023-04-24T03:26:20;12.13;;;2.70;;
35245;SDS011;21379;50.962;6.960;2023-04-24T03:29:05;8.05;;;2.28;;
35245;SDS011;21379;50.962;6.960;2023-04-24T03:31:32;7.63;;;2.90;;
35245;SDS011;21379;50.962;6.960;2023-04-24T03:34:00;4.60;;;2.58;;
35245;SDS011;21379;50.962;6.960;2023-04-24T03:36:27;4.22;;;2.75;;
35245;SDS011;21379;50.962;6.960;2023-04-24T03:38:55;4.30;;;2.58;;
35245;SDS011;21379;50.962;6.960;2023-04-24T03:41:31;6.60;;;2.80;;
35245;SDS011;21379;50.962;6.960;2023-04-24T03:44:18;6.63;;;3.17;;
35245;SDS011;21379;50.962;6.960;2023-04-24T03:46:44;7.30;;;2.15;;
35245;SDS011;21379;50.962;6.960;2023-04-24T03:49:11;5.57;;;2.35;;
35245;SDS011;21379;50.962;6.960;2023-04-24T03:51:42;3.42;;;2.65;;
35245;SDS011;21379;50.962;6.960;2023-04-24T03:54:17;5.82;;;2.63;;
35245;SDS011;21379;50.962;6.960;2023-04-24T03:56:44;2.92;;;2.67;;
35245;SDS011;21379;50.962;6.960;2023-04-24T03:59:12;7.00;;;2.97;;
35245;SDS011;21379;50.962;6.960;2023-04-24T04:01:41;5.22;;;3.15;;
35245;SDS011;21379;50.962;6.960;2023-04-24T04:04:14;7.85;;;2.88;;
35245;SDS011;21379;50.962;6.960;2023-04-24T04:06:42;4.93;;;2.47;;
35245;SDS011;21379;50.962;6.960;2023-04-24T04:09:10;5.93;;;2.90;;
35245;SDS011;21379;50.962;6.960;2023-04-24T04:11:38;4.32;;;2.72;;
35245;SDS011;21379;50.962;6.960;2023-04-24T04:14:05;4.80;;;2.22;;
35245;SDS011;21379;50.962;6.960;2023-04-24T04:16:34;4.20;;;2.35;;
35245;SDS011;21379;50.962;6.960;2023-04-24T04:19:02;3.83;;;2.63;;
35245;SDS011;21379;50.962;6.960;2023-04-24T04:21:30;2.60;;;2.28;;
35245;SDS011;21379;50.962;6.960;2023-04-24T04:24:08;6.53;;;2.53;;
35245;SDS011;21379;50.962;6.960;2023-04-24T04:26:39;4.63;;;2.17;;
35245;SDS011;21379;50.962;6.960;2023-04-24T04:29:12;5.72;;;2.42;;
35245;SDS011;21379;50.962;6.960;2023-04-24T04:31:42;6.60;;;2.30;;
35245;SDS011;21379;50.962;6.960;2023-04-24T04:34:11;10.10;;;3.10;;
35245;SDS011;21379;50.962;6.960;2023-04-24T04:36:40;3.45;;;2.10;;
35245;SDS011;21379;50.962;6.960;2023-04-24T04:39:36;2.85;;;1.77;;
35245;SDS011;21379;50.962;6.960;2023-04-24T04:42:12;15.15;;;4.45;;
35245;SDS011;21379;50.962;6.960;2023-04-24T04:44:42;6.47;;;2.72;;
35245;SDS011;21379;50.962;6.960;2023-04-24T04:47:15;3.78;;;2.15;;
35245;SDS011;21379;50.962;6.960;2023-04-24T04:49:43;5.65;;;2.28;;
35245;SDS011;21379;50.962;6.960;2023-04-24T04:52:17;3.50;;;2.10;;
35245;SDS011;21379;50.962;6.960;2023-04-24T04:54:47;5.95;;;2.15;;
35245;SDS011;21379;50.962;6.960;2023-04-24T04:57:15;5.28;;;1.92;;
35245;SDS011;21379;50.962;6.960;2023-04-24T04:59:42;7.22;;;2.35;;
35245;SDS011;21379;50.962;6.960;2023-04-24T05:02:15;3.45;;;2.35;;
35245;SDS011;21379;50.962;6.960;2023-04-24T05:04:42;6.82;;;2.30;;
35245;SDS011;21379;50.962;6.960;2023-04-24T05:07:10;3.83;;;2.05;;
35245;SDS011;21379;50.962;6.960;2023-04-24T05:09:40;4.40;;;2.97;;
35245;SDS011;21379;50.962;6.960;2023-04-24T05:12:06;3.42;;;2.30;;
35245;SDS011;21379;50.962;6.960;2023-04-24T05:14:41;8.35;;;2.70;;
35245;SDS011;21379;50.962;6.960;2023-04-24T05:17:10;5.22;;;2.83;;
35245;SDS011;21379;50.962;6.960;2023-04-24T05:19:37;7.55;;;3.20;;
35245;SDS011;21379;50.962;6.960;2023-04-24T05:22:05;5.07;;;2.65;;
35245;SDS011;21379;50.962;6.960;2023-04-24T05:24:36;4.47;;;2.38;;
35245;SDS011;21379;50.962;6.960;2023-04-24T05:27:21;5.50;;;2.60;;
35245;SDS011;21379;50.962;6.960;2023-04-24T05:29:50;3.97;;;2.15;;
35245;SDS011;21379;50.962;6.960;2023-04-24T05:32:17;6.18;;;2.08;;
35245;SDS011;21379;50.962;6.960;2023-04-24T05:34:44;5.10;;;2.20;;
35245;SDS011;21379;50.962;6.960;2023-04-24T05:37:12;3.53;;;2.25;;
35245;SDS011;21379;50.962;6.960;2023-04-24T05:39:39;3.60;;;1.77;;
35245;SDS011;21379;50.962;6.960;2023-04-24T05:42:07;4.15;;;2.33;;
35245;SDS011;21379;50.962;6.960;2023-04-24T05:44:34;2.83;;;1.60;;
35245;SDS011;21379;50.962;6.960;2023-04-24T05:47:02;3.97;;;2.22;;
35245;SDS011;21379;50.962;6.960;2023-04-24T05:49:30;2.42;;;1.65;;
35245;SDS011;21379;50.962;6.960;2023-04-24T05:51:57;7.85;;;2.55;;
35245;SDS011;21379;50.962;6.960;2023-04-24T05:54:24;5.90;;;2.95;;
35245;SDS011;21379;50.962;6.960;2023-04-24T05:56:51;4.28;;;2.50;;
35245;SDS011;21379;50.962;6.960;2023-04-24T05:59:29;8.35;;;1.98;;
35245;SDS011;21379;50.962;6.960;2023-04-24T06:01:56;5.05;;;1.83;;
35245;SDS011;21379;50.962;6.960;2023-04-24T06:04:25;3.67;;;2.00;;
35245;SDS011;21379;50.962;6.960;2023-04-24T06:06:52;4.65;;;2.70;;
35245;SDS011;21379;50.962;6.960;2023-04-24T06:09:21;3.30;;;2.20;;
35245;SDS011;21379;50.962;6.960;2023-04-24T06:11:48;6.03;;;2.78;;
35245;SDS011;21379;50.962;6.960;2023-04-24T06:14:19;15.70;;;2.15;;
35245;SDS011;21379;50.962;6.960;2023-04-24T06:17:06;1.30;;;1.05;;
35245;SDS011;21379;50.962;6.960;2023-04-24T06:19:38;2.72;;;1.80;;
35245;SDS011;21379;50.962;6.960;2023-04-24T06:22:05;2.25;;;1.08;;
35245;SDS011;21379;50.962;6.960;2023-04-24T06:24:33;2.25;;;1.38;;
35245;SDS011;21379;50.962;6.960;2023-04-24T06:27:00;2.10;;;1.42;;
35245;SDS011;21379;50.962;6.960;2023-04-24T06:29:27;3.67;;;2.03;;
35245;SDS011;21379;50.962;6.960;2023-04-24T06:31:54;4.13;;;1.40;;
35245;SDS011;21379;50.962;6.960;2023-04-24T06:34:21;0.68;;;0.68;;
35245;SDS011;21379;50.962;6.960;2023-04-24T06:36:50;1.10;;;0.63;;
35245;SDS011;21379;50.962;6.960;2023-04-24T06:39:17;1.48;;;0.93;;
35245;SDS011;21379;50.962;6.960;2023-04-24T06:41:44;1.13;;;1.00;;
35245;SDS011;21379;50.962;6.960;2023-04-24T06:44:18;1.00;;;0.77;;
35245;SDS011;21379;50.962;6.960;2023-04-24T06:46:45;3.40;;;0.90;;
35245;SDS011;21379;50.962;6.960;2023-04-24T06:49:11;3.15;;;1.33;;
35245;SDS011;21379;50.962;6.960;2023-04-24T06:51:41;3.83;;;1.08;;
35245;SDS011;21379;50.962;6.960;2023-04-24T06:54:09;1.98;;;1.13;;
35245;SDS011;21379;50.962;6.960;2023-04-24T06:56:36;2.10;;;0.68;;
35245;SDS011;21379;50.962;6.960;2023-04-24T06:59:03;1.23;;;0.90;;
35245;SDS011;21379;50.962;6.960;2023-04-24T07:01:30;0.77;;;0.43;;
35245;SDS011;21379;50.962;6.960;2023-04-24T07:03:57;3.05;;;1.05;;
35245;SDS011;21379;50.962;6.960;2023-04-24T07:06:24;2.08;;;0.75;;
35245;SDS011;21379;50.962;6.960;2023-04-24T07:08:52;2.67;;;1.40;;
35245;SDS011;21379;50.962;6.960;2023-04-24T07:11:21;1.05;;;0.60;;
35245;SDS011;21379;50.962;6.960;2023-04-24T07:13:48;2.53;;;1.20;;
35245;SDS011;21379;50.962;6.960;2023-04-24T07:16:15;1.17;;;1.08;;
35245;SDS011;21379;50.962;6.960;2023-04-24T07:18:42;0.65;;;0.60;;
35245;SDS011;21379;50.962;6.960;2023-04-24T07:21:09;0.93;;;0.93;;
35245;SDS011;21379;50.962;6.960;2023-04-24T07:23:36;0.63;;;0.63;;
35245;SDS011;21379;50.962;6.960;2023-04-24T07:26:03;0.50;;;0.50;;
35245;SDS011;21379;50.962;6.960;2023-04-24T07:28:32;0.68;;;0.43;;
35245;SDS011;21379;50.962;6.960;2023-04-24T07:30:58;0.90;;;0.43;;
35245;SDS011;21379;50.962;6.960;2023-04-24T07:33:26;1.20;;;1.10;;
35245;SDS011;21379;50.962;6.960;2023-04-24T07:35:52;0.85;;;0.73;;
35245;SDS011;21379;50.962;6.960;2023-04-24T07:38:20;1.23;;;0.77;;
35245;SDS011;21379;50.962;6.960;2023-04-24T07:40:47;0.75;;;0.70;;
35245;SDS011;21379;50.962;6.960;2023-04-24T07:43:14;1.02;;;0.85;;
35245;SDS011;21379;50.962;6.960;2023-04-24T07:45:42;0.32;;;0.32;;
35245;SDS011;21379;50.962;6.960;2023-04-24T07:48:09;0.80;;;0.65;;
35245;SDS011;21379;50.962;6.960;2023-04-24T07:50:36;0.90;;;0.47;;
35245;SDS011;21379;50.962;6.960;2023-04-24T07:53:03;1.30;;;0.77;;
35245;SDS011;21379;50.962;6.960;2023-04-24T07:55:30;5.53;;;0.98;;
35245;SDS011;21379;50.962;6.960;2023-04-24T07:57:57;0.50;;;0.50;;
35245;SDS011;21379;50.962;6.960;2023-04-24T08:00:24;0.88;;;0.65;;
35245;SDS011;21379;50.962;6.960;2023-04-24T08:02:53;0.45;;;0.28;;
35245;SDS011;21379;50.962;6.960;2023-04-24T08:05:20;0.73;;;0.73;;
35245;SDS011;21379;50.962;6.960;2023-04-24T08:07:46;3.08;;;0.80;;
35245;SDS011;21379;50.962;6.960;2023-04-24T08:10:15;0.40;;;0.40;;
35245;SDS011;21379;50.962;6.960;2023-04-24T08:12:42;0.65;;;0.65;;
35245;SDS011;21379;50.962;6.960;2023-04-24T08:15:09;0.90;;;0.50;;
35245;SDS011;21379;50.962;6.960;2023-04-24T08:17:36;1.08;;;0.68;;
35245;SDS011;21379;50.962;6.960;2023-04-24T08:20:05;0.35;;;0.30;;
35245;SDS011;21379;50.962;6.960;2023-04-24T08:22:38;1.40;;;0.55;;
35245;SDS011;21379;50.962;6.960;2023-04-24T08:25:05;0.70;;;0.32;;
35245;SDS011;21379;50.962;6.960;2023-04-24T08:27:33;0.40;;;0.40;;
35245;SDS011;21379;50.962;6.960;2023-04-24T08:30:01;1.08;;;0.68;;
35245;SDS011;21379;50.962;6.960;2023-04-24T08:32:28;1.20;;;0.60;;
35245;SDS011;21379;50.962;6.960;2023-04-24T08:34:55;0.60;;;0.40;;
35245;SDS011;21379;50.962;6.960;2023-04-24T08:37:25;1.55;;;0.73;;
35245;SDS011;21379;50.962;6.960;2023-04-24T08:39:53;2.10;;;0.77;;
35245;SDS011;21379;50.962;6.960;2023-04-24T08:42:20;0.82;;;0.40;;
35245;SDS011;21379;50.962;6.960;2023-04-24T08:44:48;1.08;;;0.32;;
35245;SDS011;21379;50.962;6.960;2023-04-24T08:47:15;0.88;;;0.68;;
35245;SDS011;21379;50.962;6.960;2023-04-24T08:49:43;1.08;;;0.57;;
35245;SDS011;21379;50.962;6.960;2023-04-24T08:52:10;0.68;;;0.60;;
35245;SDS011;21379;50.962;6.960;2023-04-24T08:54:41;1.50;;;0.88;;
35245;SDS011;21379;50.962;6.960;2023-04-24T08:57:10;2.92;;;0.75;;
35245;SDS011;21379;50.962;6.960;2023-04-24T08:59:40;0.75;;;0.75;;
35245;SDS011;21379;50.962;6.960;2023-04-24T09:02:08;1.85;;;1.05;;
35245;SDS011;21379;50.962;6.960;2023-04-24T09:04:37;7.10;;;1.52;;
35245;SDS011;21379;50.962;6.960;2023-04-24T09:07:04;1.08;;;0.88;;
35245;SDS011;21379;50.962;6.960;2023-04-24T09:09:33;1.77;;;0.80;;
35245;SDS011;21379;50.962;6.960;2023-04-24T09:12:03;1.77;;;1.08;;
35245;SDS011;21379;50.962;6.960;2023-04-24T09:14:30;5.97;;;1.08;;
35245;SDS011;21379;50.962;6.960;2023-04-24T09:16:58;4.22;;;1.50;;
35245;SDS011;21379;50.962;6.960;2023-04-24T09:19:25;3.25;;;1.30;;
35245;SDS011;21379;50.962;6.960;2023-04-24T09:21:52;3.55;;;2.63;;
35245;SDS011;21379;50.962;6.960;2023-04-24T09:24:20;3.33;;;1.35;;
35245;SDS011;21379;50.962;6.960;2023-04-24T09:26:48;2.33;;;1.23;;
35245;SDS011;21379;50.962;6.960;2023-04-24T09:29:23;3.03;;;1.65;;
35245;SDS011;21379;50.962;6.960;2023-04-24T09:31:51;5.72;;;1.92;;
35245;SDS011;21379;50.962;6.960;2023-04-24T09:34:20;4.03;;;2.03;;
35245;SDS011;21379;50.962;6.960;2023-04-24T09:36:49;2.58;;;2.00;;
35245;SDS011;21379;50.962;6.960;2023-04-24T09:39:16;2.47;;;2.00;;
35245;SDS011;21379;50.962;6.960;2023-04-24T09:41:45;2.33;;;2.13;;
35245;SDS011;21379;50.962;6.960;2023-04-24T09:44:13;2.65;;;1.75;;
35245;SDS011;21379;50.962;6.960;2023-04-24T09:46:42;4.68;;;2.15;;
35245;SDS011;21379;50.962;6.960;2023-04-24T09:49:12;2.90;;;1.67;;
35245;SDS011;21379;50.962;6.960;2023-04-24T09:51:40;3.70;;;1.77;;
35245;SDS011;21379;50.962;6.960;2023-04-24T09:54:13;4.25;;;2.53;;
35245;SDS011;21379;50.962;6.960;2023-04-24T09:56:42;3.13;;;1.98;;
35245;SDS011;21379;50.962;6.960;2023-04-24T09:59:10;4.43;;;1.80;;
35245;SDS011;21379;50.962;6.960;2023-04-24T10:01:37;9.68;;;2.92;;
35245;SDS011;21379;50.962;6.960;2023-04-24T10:04:15;3.65;;;2.75;;
35245;SDS011;21379;50.962;6.960;2023-04-24T10:06:44;6.65;;;2.38;;
35245;SDS011;21379;50.962;6.960;2023-04-24T10:09:18;5.70;;;2.92;;
35245;SDS011;21379;50.962;6.960;2023-04-24T10:12:08;3.92;;;2.25;;
35245;SDS011;21379;50.962;6.960;2023-04-24T10:14:59;10.45;;;3.78;;
35245;SDS011;21379;50.962;6.960;2023-04-24T10:17:40;4.03;;;2.67;;
35245;SDS011;21379;50.962;6.960;2023-04-24T10:20:43;2.65;;;1.67;;
35245;SDS011;21379;50.962;6.960;2023-04-24T10:23:26;3.67;;;1.90;;
35245;SDS011;21379;50.962;6.960;2023-04-24T10:26:27;3.60;;;1.70;;
35245;SDS011;21379;50.962;6.960;2023-04-24T10:29:19;4.53;;;1.83;;
35245;SDS011;21379;50.962;6.960;2023-04-24T10:32:03;2.45;;;1.77;;
35245;SDS011;21379;50.962;6.960;2023-04-24T10:34:49;2.72;;;2.00;;
35245;SDS011;21379;50.962;6.960;2023-04-24T10:37:48;3.22;;;1.77;;
35245;SDS011;21379;50.962;6.960;2023-04-24T10:41:18;5.63;;;1.75;;
35245;SDS011;21379;50.962;6.960;2023-04-24T10:44:05;14.48;;;2.83;;
35245;SDS011;21379;50.962;6.960;2023-04-24T10:46:36;6.55;;;1.80;;
35245;SDS011;21379;50.962;6.960;2023-04-24T10:49:08;10.80;;;2.40;;
35245;SDS011;21379;50.962;6.960;2023-04-24T10:51:51;2.40;;;1.40;;
35245;SDS011;21379;50.962;6.960;2023-04-24T10:54:35;6.32;;;2.50;;
35245;SDS011;21379;50.962;6.960;2023-04-24T10:57:25;4.03;;;1.88;;
35245;SDS011;21379;50.962;6.960;2023-04-24T11:00:12;5.07;;;1.80;;
35245;SDS011;21379;50.962;6.960;2023-04-24T11:02:54;9.27;;;2.15;;
35245;SDS011;21379;50.962;6.960;2023-04-24T11:08:24;4.40;;;1.85;;
35245;SDS011;21379;50.962;6.960;2023-04-24T11:11:11;8.93;;;2.03;;
35245;SDS011;21379;50.962;6.960;2023-04-24T11:14:06;5.45;;;3.03;;
35245;SDS011;21379;50.962;6.960;2023-04-24T11:16:38;3.90;;;1.52;;
35245;SDS011;21379;50.962;6.960;2023-04-24T11:19:10;2.92;;;1.58;;
35245;SDS011;21379;50.962;6.960;2023-04-24T11:21:46;2.22;;;1.50;;
35245;SDS011;21379;50.962;6.960;2023-04-24T11:24:21;3.85;;;1.83;;
35245;SDS011;21379;50.962;6.960;2023-04-24T11:26:52;3.58;;;1.58;;
35245;SDS011;21379;50.962;6.960;2023-04-24T11:29:22;3.05;;;1.75;;
35245;SDS011;21379;50.962;6.960;2023-04-24T11:31:49;12.07;;;2.35;;
35245;SDS011;21379;50.962;6.960;2023-04-24T11:34:16;1.90;;;1.50;;
35245;SDS011;21379;50.962;6.960;2023-04-24T11:36:44;2.17;;;1.20;;
35245;SDS011;21379;50.962;6.960;2023-04-24T11:39:12;1.70;;;1.30;;
35245;SDS011;21379;50.962;6.960;2023-04-24T11:41:39;4.90;;;2.75;;
35245;SDS011;21379;50.962;6.960;2023-04-24T11:44:08;3.47;;;2.38;;
35245;SDS011;21379;50.962;6.960;2023-04-24T11:46:36;5.53;;;1.92;;
35245;SDS011;21379;50.962;6.960;2023-04-24T11:49:05;3.28;;;2.30;;
35245;SDS011;21379;50.962;6.960;2023-04-24T11:51:32;2.53;;;1.55;;
35245;SDS011;21379;50.962;6.960;2023-04-24T11:54:00;4.10;;;2.55;;
35245;SDS011;21379;50.962;6.960;2023-04-24T11:56:27;2.67;;;2.08;;
35245;SDS011;21379;50.962;6.960;2023-04-24T11:58:54;3.33;;;2.53;;
35245;SDS011;21379;50.962;6.960;2023-04-24T12:01:22;6.38;;;2.53;;
35245;SDS011;21379;50.962;6.960;2023-04-24T12:03:49;11.18;;;3.83;;
35245;SDS011;21379;50.962;6.960;2023-04-24T12:06:16;3.85;;;2.67;;
35245;SDS011;21379;50.962;6.960;2023-04-24T12:08:47;5.68;;;2.45;;
35245;SDS011;21379;50.962;6.960;2023-04-24T12:11:15;9.45;;;2.97;;
35245;SDS011;21379;50.962;6.960;2023-04-24T12:13:44;7.28;;;2.60;;
35245;SDS011;21379;50.962;6.960;2023-04-24T12:16:11;4.25;;;2.30;;
35245;SDS011;21379;50.962;6.960;2023-04-24T12:18:44;4.53;;;2.28;;
35245;SDS011;21379;50.962;6.960;2023-04-24T12:21:15;5.05;;;2.72;;
35245;SDS011;21379;50.962;6.960;2023-04-24T12:23:45;5.20;;;2.70;;
35245;SDS011;21379;50.962;6.960;2023-04-24T12:26:12;6.07;;;2.88;;
35245;SDS011;21379;50.962;6.960;2023-04-24T12:28:45;7.07;;;2.67;;
35245;SDS011;21379;50.962;6.960;2023-04-24T12:31:13;3.85;;;2.25;;
35245;SDS011;21379;50.962;6.960;2023-04-24T12:33:40;4.53;;;2.42;;
35245;SDS011;21379;50.962;6.960;2023-04-24T12:36:10;4.47;;;2.45;;
35245;SDS011;21379;50.962;6.960;2023-04-24T12:38:38;6.90;;;2.53;;
35245;SDS011;21379;50.962;6.960;2023-04-24T12:41:07;4.90;;;1.83;;
35245;SDS011;21379;50.962;6.960;2023-04-24T12:43:35;4.50;;;2.72;;
35245;SDS011;21379;50.962;6.960;2023-04-24T12:46:03;5.75;;;2.03;;
35245;SDS011;21379;50.962;6.960;2023-04-24T12:48:30;10.48;;;2.30;;
35245;SDS011;21379;50.962;6.960;2023-04-24T12:50:57;2.70;;;1.92;;
35245;SDS011;21379;50.962;6.960;2023-04-24T12:53:28;6.97;;;1.73;;
35245;SDS011;21379;50.962;6.960;2023-04-24T12:55:56;3.17;;;1.83;;
35245;SDS011;21379;50.962;6.960;2023-04-24T12:58:23;9.40;;;3.70;;
35245;SDS011;21379;50.962;6.960;2023-04-24T13:00:50;4.22;;;2.00;;
35245;SDS011;21379;50.962;6.960;2023-04-24T13:03:18;20.48;;;2.33;;
35245;SDS011;21379;50.962;6.960;2023-04-24T13:05:45;4.40;;;2.03;;
35245;SDS011;21379;50.962;6.960;2023-04-24T13:08:12;5.38;;;1.85;;
35245;SDS011;21379;50.962;6.960;2023-04-24T13:10:40;2.25;;;1.50;;
35245;SDS011;21379;50.962;6.960;2023-04-24T13:13:07;2.30;;;1.67;;
35245;SDS011;21379;50.962;6.960;2023-04-24T13:15:35;4.82;;;1.70;;
35245;SDS011;21379;50.962;6.960;2023-04-24T13:18:02;3.97;;;2.25;;
35245;SDS011;21379;50.962;6.960;2023-04-24T13:20:29;5.45;;;2.05;;
35245;SDS011;21379;50.962;6.960;2023-04-24T13:22:56;5.82;;;2.47;;
35245;SDS011;21379;50.962;6.960;2023-04-24T13:25:23;7.80;;;2.33;;
35245;SDS011;21379;50.962;6.960;2023-04-24T13:27:51;3.80;;;1.48;;
35245;SDS011;21379;50.962;6.960;2023-04-24T13:30:18;4.93;;;2.45;;
35245;SDS011;21379;50.962;6.960;2023-04-24T13:32:45;5.85;;;1.80;;
35245;SDS011;21379;50.962;6.960;2023-04-24T13:35:12;4.10;;;1.85;;
35245;SDS011;21379;50.962;6.960;2023-04-24T13:37:39;8.65;;;1.70;;
35245;SDS011;21379;50.962;6.960;2023-04-24T13:40:06;5.80;;;1.60;;
35245;SDS011;21379;50.962;6.960;2023-04-24T13:42:34;5.82;;;2.20;;
35245;SDS011;21379;50.962;6.960;2023-04-24T13:45:03;2.45;;;1.35;;
35245;SDS011;21379;50.962;6.960;2023-04-24T13:47:30;4.03;;;1.75;;
35245;SDS011;21379;50.962;6.960;2023-04-24T13:49:57;6.70;;;1.98;;
35245;SDS011;21379;50.962;6.960;2023-04-24T13:52:24;2.38;;;1.60;;
35245;SDS011;21379;50.962;6.960;2023-04-24T13:54:51;5.03;;;1.70;;
35245;SDS011;21379;50.962;6.960;2023-04-24T13:57:18;3.72;;;1.92;;
35245;SDS011;21379;50.962;6.960;2023-04-24T13:59:45;2.65;;;1.85;;
35245;SDS011;21379;50.962;6.960;2023-04-24T14:02:13;3.05;;;1.55;;
35245;SDS011;21379;50.962;6.960;2023-04-24T14:04:40;7.93;;;1.63;;
35245;SDS011;21379;50.962;6.960;2023-04-24T14:07:07;2.90;;;1.35;;
35245;SDS011;21379;50.962;6.960;2023-04-24T14:09:34;5.28;;;2.17;;
35245;SDS011;21379;50.962;6.960;2023-04-24T14:12:01;3.83;;;1.00;;
35245;SDS011;21379;50.962;6.960;2023-04-24T14:14:28;9.57;;;1.52;;
35245;SDS011;21379;50.962;6.960;2023-04-24T14:16:56;7.47;;;1.35;;
35245;SDS011;21379;50.962;6.960;2023-04-24T14:19:24;5.50;;;1.50;;
35245;SDS011;21379;50.962;6.960;2023-04-24T14:21:51;5.05;;;1.73;;
35245;SDS011;21379;50.962;6.960;2023-04-24T14:24:18;7.57;;;1.58;;
35245;SDS011;21379;50.962;6.960;2023-04-24T14:26:45;6.93;;;1.95;;
35245;SDS011;21379;50.962;6.960;2023-04-24T14:29:12;7.00;;;1.63;;
35245;SDS011;21379;50.962;6.960;2023-04-24T14:31:40;4.25;;;1.75;;
35245;SDS011;21379;50.962;6.960;2023-04-24T14:34:07;2.28;;;1.50;;
35245;SDS011;21379;50.962;6.960;2023-04-24T14:36:35;4.13;;;1.80;;
35245;SDS011;21379;50.962;6.960;2023-04-24T14:39:02;4.47;;;1.48;;
35245;SDS011;21379;50.962;6.960;2023-04-24T14:41:31;3.08;;;1.50;;
35245;SDS011;21379;50.962;6.960;2023-04-24T14:44:00;2.67;;;1.45;;
35245;SDS011;21379;50.962;6.960;2023-04-24T14:46:28;3.97;;;2.38;;
35245;SDS011;21379;50.962;6.960;2023-04-24T14:48:55;7.05;;;1.88;;
35245;SDS011;21379;50.962;6.960;2023-04-24T14:51:22;1.70;;;1.38;;
35245;SDS011;21379;50.962;6.960;2023-04-24T14:53:51;10.43;;;2.90;;
35245;SDS011;21379;50.962;6.960;2023-04-24T14:56:18;4.28;;;1.23;;
35245;SDS011;21379;50.962;6.960;2023-04-24T14:58:45;5.03;;;1.75;;
35245;SDS011;21379;50.962;6.960;2023-04-24T15:01:12;4.25;;;1.75;;
35245;SDS011;21379;50.962;6.960;2023-04-24T15:03:39;5.53;;;1.80;;
35245;SDS011;21379;50.962;6.960;2023-04-24T15:06:06;6.50;;;1.58;;